EIN9AL EIKN-EGLL
Flight info
| Callsign | EIN9AL |
|---|---|
| Flight time | N/A |
| Altitude | 33000 |
| Route | CON DCT OLAPO DCT BOFUM Q37 MALUD Q38 NUGRA |
| Aircraft | A320/M-SDE2E3FGHIJ1RWXYZ/HB1 |
Departure
| Time | 2026-04-27 21:57 |
|---|---|
| Airport | Ireland West Airport Knock (EIKN) |
Arrival
| Time | N/A |
|---|---|
| Airport | London Heathrow Airport (EGLL) |
| Time | Latitude | Longitude | Altitude | Speed | Heading |
|---|---|---|---|---|---|
| 2026-04-27 21:50 | 53.91343 | -8.81012 | 652 ft | 0 kts | 259° |
| 2026-04-27 21:54 | 53.91332 | -8.80962 | 649 ft | 16 kts | 86° |
| 2026-04-27 21:55 | 53.91221 | -8.80883 | 651 ft | 15 kts | 170° |
| 2026-04-27 21:55 | 53.91167 | -8.80757 | 653 ft | 14 kts | 77° |
| 2026-04-27 21:55 | 53.91187 | -8.80579 | 652 ft | 17 kts | 82° |
| 2026-04-27 21:55 | 53.91204 | -8.80371 | 652 ft | 19 kts | 79° |
| 2026-04-27 21:56 | 53.91252 | -8.80139 | 650 ft | 23 kts | 62° |
| 2026-04-27 21:56 | 53.91238 | -8.80073 | 649 ft | 10 kts | 261° |
| 2026-04-27 21:56 | 53.91225 | -8.80182 | 651 ft | 9 kts | 259° |
| 2026-04-27 21:57 | 53.91196 | -8.80429 | 652 ft | 52 kts | 259° |
| 2026-04-27 21:57 | 53.91073 | -8.81478 | 648 ft | 126 kts | 259° |
| 2026-04-27 21:57 | 53.90857 | -8.83219 | 839 ft | 161 kts | 259° |
| 2026-04-27 21:57 | 53.90622 | -8.85061 | 1641 ft | 159 kts | 261° |
| 2026-04-27 21:58 | 53.90403 | -8.86930 | 2241 ft | 170 kts | 261° |
| 2026-04-27 21:58 | 53.90162 | -8.89026 | 2643 ft | 192 kts | 260° |
| 2026-04-27 21:58 | 53.89890 | -8.91385 | 3057 ft | 215 kts | 259° |
| 2026-04-27 21:58 | 53.89585 | -8.94014 | 3482 ft | 240 kts | 259° |
| 2026-04-27 21:59 | 53.89198 | -8.96888 | 4128 ft | 258 kts | 250° |
| 2026-04-27 21:59 | 53.88175 | -8.99434 | 4965 ft | 271 kts | 221° |
| 2026-04-27 21:59 | 53.86484 | -9.00873 | 5302 ft | 276 kts | 188° |
| 2026-04-27 21:59 | 53.84598 | -9.00699 | 5389 ft | 272 kts | 165° |
| 2026-04-27 22:00 | 53.82770 | -9.00036 | 5402 ft | 272 kts | 165° |
| 2026-04-27 22:00 | 53.80895 | -8.99330 | 5443 ft | 274 kts | 160° |
| 2026-04-27 22:00 | 53.79186 | -8.97893 | 6262 ft | 272 kts | 140° |
| 2026-04-27 22:00 | 53.77845 | -8.95741 | 7296 ft | 270 kts | 123° |
| 2026-04-27 22:01 | 53.76955 | -8.92978 | 8226 ft | 268 kts | 104° |
| 2026-04-27 22:01 | 53.76553 | -8.89899 | 9044 ft | 272 kts | 96° |
| 2026-04-27 22:01 | 53.76226 | -8.86827 | 9322 ft | 273 kts | 96° |
| 2026-04-27 22:01 | 53.75889 | -8.83664 | 9396 ft | 273 kts | 96° |
| 2026-04-27 22:02 | 53.75550 | -8.80497 | 9401 ft | 273 kts | 96° |
| 2026-04-27 22:02 | 53.75219 | -8.77446 | 9487 ft | 276 kts | 96° |
| 2026-04-27 22:02 | 53.74870 | -8.74246 | 10444 ft | 277 kts | 96° |
| 2026-04-27 22:02 | 53.74518 | -8.71022 | 11341 ft | 281 kts | 96° |
| 2026-04-27 22:03 | 53.74162 | -8.67754 | 12201 ft | 285 kts | 96° |
| 2026-04-27 22:03 | 53.73798 | -8.64439 | 13062 ft | 289 kts | 96° |
| 2026-04-27 22:03 | 53.73432 | -8.61125 | 13911 ft | 292 kts | 96° |
| 2026-04-27 22:03 | 53.73056 | -8.57729 | 14682 ft | 297 kts | 96° |
| 2026-04-27 22:04 | 53.72672 | -8.54270 | 15424 ft | 300 kts | 95° |
| 2026-04-27 22:04 | 53.72285 | -8.50770 | 16165 ft | 304 kts | 95° |
| 2026-04-27 22:04 | 53.71954 | -8.47151 | 16545 ft | 321 kts | 91° |
| 2026-04-27 22:04 | 53.71725 | -8.43274 | 16713 ft | 343 kts | 90° |
| 2026-04-27 22:05 | 53.71531 | -8.39113 | 16860 ft | 366 kts | 90° |
| 2026-04-27 22:05 | 53.71340 | -8.34714 | 17008 ft | 386 kts | 89° |
| 2026-04-27 22:05 | 53.71136 | -8.30076 | 17140 ft | 405 kts | 90° |
| 2026-04-27 22:05 | 53.70915 | -8.25309 | 17412 ft | 418 kts | 90° |
| 2026-04-27 22:06 | 53.70672 | -8.20380 | 17909 ft | 423 kts | 90° |
| 2026-04-27 22:06 | 53.70413 | -8.15404 | 18448 ft | 428 kts | 91° |
| 2026-04-27 22:06 | 53.70144 | -8.10379 | 18935 ft | 431 kts | 91° |
| 2026-04-27 22:06 | 53.69871 | -8.05325 | 19393 ft | 435 kts | 91° |
| 2026-04-27 22:07 | 53.69599 | -8.00229 | 19833 ft | 438 kts | 90° |
| 2026-04-27 22:07 | 53.69333 | -7.95089 | 20254 ft | 440 kts | 90° |
| 2026-04-27 22:07 | 53.69077 | -7.89927 | 20695 ft | 443 kts | 90° |
| 2026-04-27 22:07 | 53.68816 | -7.84725 | 21096 ft | 446 kts | 89° |
| 2026-04-27 22:08 | 53.68899 | -7.79538 | 21516 ft | 440 kts | 76° |